createdAt,value
2018-11-11T00:00:19.983Z,50.27
2018-11-11T00:02:49.855Z,45.00
2018-11-11T00:05:18.881Z,54.67
2018-11-11T00:07:48.103Z,50.57
2018-11-11T00:10:17.098Z,51.80
2018-11-11T00:12:46.307Z,53.97
2018-11-11T00:15:16.682Z,50.97
2018-11-11T00:17:46.949Z,53.00
2018-11-11T00:20:16.191Z,49.63
2018-11-11T00:22:45.293Z,50.33
2018-11-11T00:25:15.460Z,49.07
2018-11-11T00:27:45.666Z,54.13
2018-11-11T00:30:17.188Z,50.57
2018-11-11T00:32:46.462Z,49.10
2018-11-11T00:35:15.694Z,48.97
2018-11-11T00:37:44.740Z,49.03
2018-11-11T00:40:15.519Z,51.80
2018-11-11T00:42:45.037Z,53.43
2018-11-11T00:45:15.123Z,47.67
2018-11-11T00:47:44.883Z,51.30
2018-11-11T00:50:14.298Z,53.73
2018-11-11T00:52:43.366Z,47.57
2018-11-11T00:55:14.622Z,43.60
2018-11-11T00:57:44.221Z,52.67
2018-11-11T01:00:18.124Z,49.43
2018-11-11T01:02:48.049Z,47.20
2018-11-11T01:05:17.196Z,51.10
2018-11-11T01:07:46.354Z,44.87
2018-11-11T01:10:16.665Z,53.50
2018-11-11T01:12:46.207Z,48.17
2018-11-11T01:15:16.400Z,53.73
2018-11-11T01:17:45.635Z,55.87
2018-11-11T01:20:16.214Z,55.13
2018-11-11T01:22:46.046Z,54.90
2018-11-11T01:25:16.445Z,54.50
2018-11-11T01:27:45.978Z,52.00
2018-11-11T01:30:15.507Z,54.33
2018-11-11T01:32:45.072Z,49.67
2018-11-11T01:35:15.504Z,49.33
2018-11-11T01:37:45.641Z,53.67
2018-11-11T01:40:24.388Z,56.10
2018-11-11T01:42:59.490Z,49.73
2018-11-11T01:45:31.098Z,47.40
2018-11-11T01:48:00.365Z,47.20
2018-11-11T01:50:29.582Z,47.57
2018-11-11T01:52:58.664Z,49.07
2018-11-11T01:55:28.028Z,53.60
2018-11-11T01:57:57.279Z,50.47
2018-11-11T02:00:26.485Z,47.07
2018-11-11T02:02:55.783Z,45.23
2018-11-11T02:05:24.925Z,55.73
2018-11-11T02:07:54.077Z,48.07
2018-11-11T02:10:23.301Z,51.87
2018-11-11T02:12:52.472Z,47.73
2018-11-11T02:15:21.535Z,53.20
2018-11-11T02:17:51.007Z,54.20
2018-11-11T02:20:20.832Z,51.33
2018-11-11T02:22:51.435Z,52.03
2018-11-11T02:25:20.485Z,50.10
2018-11-11T02:27:49.647Z,57.00
2018-11-11T02:30:22.896Z,48.43
2018-11-11T02:32:52.205Z,45.03
2018-11-11T02:35:21.431Z,49.33
2018-11-11T02:37:50.611Z,55.47
2018-11-11T02:40:20.523Z,48.43
2018-11-11T02:42:50.521Z,52.87
2018-11-11T02:45:20.470Z,50.57
2018-11-11T02:47:49.604Z,41.30
2018-11-11T02:50:19.641Z,39.73
2018-11-11T02:52:49.324Z,43.63
2018-11-11T02:55:18.640Z,45.53
2018-11-11T02:57:48.298Z,40.60
2018-11-11T03:00:20.721Z,45.10
2018-11-11T03:02:50.204Z,44.37
2018-11-11T03:05:20.031Z,37.63
2018-11-11T03:07:49.315Z,48.47
2018-11-11T03:10:18.944Z,47.13
2018-11-11T03:12:48.945Z,47.67
2018-11-11T03:15:18.655Z,36.40
2018-11-11T03:17:48.195Z,39.93
2018-11-11T03:20:17.980Z,39.20
2018-11-11T03:22:47.049Z,45.00
2018-11-11T03:25:17.117Z,42.97
2018-11-11T03:27:46.345Z,37.23
2018-11-11T03:30:21.008Z,40.83
2018-11-11T03:32:50.400Z,38.17
2018-11-11T03:35:19.652Z,42.53
2018-11-11T03:37:48.962Z,37.07
2018-11-11T03:40:20.305Z,38.93
2018-11-11T03:42:50.247Z,35.40
2018-11-11T03:45:20.341Z,42.73
2018-11-11T03:47:50.611Z,41.00
2018-11-11T03:50:19.882Z,42.47
2018-11-11T03:52:50.367Z,44.17
2018-11-11T03:55:19.572Z,38.00
2018-11-11T03:57:48.767Z,44.00
2018-11-11T04:00:18.596Z,40.93
2018-11-11T04:02:47.797Z,35.70
2018-11-11T04:05:17.812Z,38.47
2018-11-11T04:07:47.342Z,38.63
2018-11-11T04:10:17.957Z,41.73
2018-11-11T04:12:47.899Z,42.37
2018-11-11T04:15:18.274Z,42.93
2018-11-11T04:17:47.810Z,41.93
2018-11-11T04:20:19.124Z,35.77
2018-11-11T04:22:48.335Z,35.43
2018-11-11T04:25:18.506Z,36.57
2018-11-11T04:27:48.071Z,35.90
2018-11-11T04:30:17.169Z,33.80
2018-11-11T04:32:46.238Z,40.73
2018-11-11T04:35:18.878Z,37.00
2018-11-11T04:37:48.248Z,39.43
2018-11-11T04:40:17.572Z,38.27
2018-11-11T04:42:46.658Z,32.87
2018-11-11T04:45:16.761Z,40.43
2018-11-11T04:47:46.964Z,30.77
2018-11-11T04:50:17.225Z,35.17
2018-11-11T04:52:47.065Z,42.40
2018-11-11T04:55:16.337Z,35.53
2018-11-11T04:57:45.561Z,34.10
2018-11-11T05:00:15.975Z,36.57
2018-11-11T05:02:45.245Z,33.53
2018-11-11T05:05:16.695Z,36.90
2018-11-11T05:07:45.763Z,35.83
2018-11-11T05:10:15.046Z,37.27
2018-11-11T05:12:44.623Z,41.90
2018-11-11T05:15:14.520Z,39.90
2018-11-11T05:17:44.148Z,37.67
2018-11-11T05:20:14.040Z,38.80
2018-11-11T05:22:43.682Z,34.83
2018-11-11T05:25:13.981Z,40.07
2018-11-11T05:27:43.653Z,41.43
2018-11-11T05:30:14.208Z,36.30
2018-11-11T05:32:43.294Z,36.30
2018-11-11T05:35:13.119Z,42.40
2018-11-11T05:37:43.051Z,39.07
2018-11-11T05:40:13.050Z,38.40
2018-11-11T05:42:42.906Z,31.30
2018-11-11T05:45:13.193Z,34.90
2018-11-11T05:47:42.808Z,30.57
2018-11-11T05:50:13.996Z,37.73
2018-11-11T05:52:44.053Z,29.23
2018-11-11T05:55:13.283Z,33.07
2018-11-11T05:57:42.631Z,32.93
2018-11-11T06:00:19.109Z,34.00
2018-11-11T06:02:48.197Z,32.23
2018-11-11T06:05:18.331Z,36.47
2018-11-11T06:07:48.802Z,34.47
2018-11-11T06:10:17.975Z,37.63
2018-11-11T06:12:47.200Z,35.17
2018-11-11T06:15:16.581Z,37.00
2018-11-11T06:17:45.768Z,33.63
2018-11-11T06:20:18.893Z,33.20
2018-11-11T06:22:48.204Z,31.87
2018-11-11T06:25:17.325Z,39.60
2018-11-11T06:27:46.777Z,34.17
2018-11-11T06:30:16.232Z,30.03
2018-11-11T06:32:45.217Z,32.73
2018-11-11T06:35:14.641Z,28.43
2018-11-11T06:37:44.005Z,36.67
2018-11-11T06:40:14.195Z,32.07
2018-11-11T06:42:43.445Z,34.43
2018-11-11T06:45:14.214Z,36.20
2018-11-11T06:47:43.988Z,33.53
2018-11-11T06:50:14.866Z,38.23
2018-11-11T06:52:45.721Z,31.17
2018-11-11T06:55:15.303Z,32.97
2018-11-11T06:57:45.078Z,28.10
2018-11-11T07:00:16.018Z,30.30
2018-11-11T07:02:56.675Z,29.43
2018-11-11T07:05:25.856Z,28.13
2018-11-11T07:07:55.892Z,27.30
2018-11-11T07:10:24.968Z,27.20
2018-11-11T07:12:55.432Z,33.97
2018-11-11T07:15:24.808Z,33.93
2018-11-11T07:17:54.325Z,27.87
2018-11-11T07:20:23.926Z,31.27
2018-11-11T07:22:53.141Z,29.30
2018-11-11T07:25:22.139Z,28.60
2018-11-11T07:27:51.645Z,27.13
2018-11-11T07:30:21.107Z,34.07
2018-11-11T07:32:50.400Z,29.37
2018-11-11T07:35:19.922Z,25.90
2018-11-11T07:37:49.295Z,31.43
2018-11-11T07:40:18.472Z,27.60
2018-11-11T07:42:47.712Z,29.60
2018-11-11T07:45:16.885Z,28.17
2018-11-11T07:47:46.156Z,25.77
2018-11-11T07:50:15.197Z,29.33
2018-11-11T07:52:44.235Z,30.37
2018-11-11T07:55:13.631Z,25.63
2018-11-11T07:57:43.026Z,30.10
2018-11-11T08:00:14.026Z,31.23
2018-11-11T08:02:43.807Z,27.83
2018-11-11T08:05:13.243Z,30.33
2018-11-11T08:07:42.498Z,25.03
2018-11-11T08:10:23.482Z,28.40
2018-11-11T08:12:52.626Z,25.80
2018-11-11T08:15:22.132Z,23.90
2018-11-11T08:17:51.234Z,24.53
2018-11-11T16:24:43.021Z,90.17
2018-11-11T16:27:12.404Z,80.00
2018-11-11T16:58:42.807Z,90.40
2018-11-11T17:01:11.917Z,116.53
2018-11-11T17:03:41.242Z,121.70
2018-11-11T17:06:10.856Z,197.73
2018-11-11T17:08:40.205Z,241.23
2018-11-11T17:11:09.461Z,188.20
2018-11-11T17:13:39.073Z,132.83
2018-11-11T17:16:08.269Z,120.43
2018-11-11T17:18:38.187Z,108.40
2018-11-11T17:21:07.476Z,105.43
2018-11-11T17:23:36.585Z,106.93
2018-11-11T17:26:06.270Z,102.23
2018-11-11T17:28:35.453Z,98.10
2018-11-11T17:31:04.848Z,100.97
2018-11-11T17:33:34.001Z,107.80
2018-11-11T17:36:03.447Z,103.97
2018-11-11T17:38:32.603Z,120.67
2018-11-11T17:41:01.812Z,112.83
2018-11-11T17:43:31.124Z,180.83
2018-11-11T17:46:00.240Z,145.77
2018-11-11T17:48:29.468Z,121.43
2018-11-11T17:50:58.730Z,120.10
2018-11-11T17:53:27.955Z,128.63
2018-11-11T17:55:57.060Z,144.20
2018-11-11T17:58:26.493Z,122.37
2018-11-11T18:00:55.785Z,122.30
2018-11-11T18:03:24.994Z,117.53
2018-11-11T18:05:54.195Z,117.77
2018-11-11T18:08:23.318Z,100.57
2018-11-11T18:10:52.485Z,104.90
2018-11-11T18:13:22.112Z,90.97
2018-11-11T18:15:51.243Z,99.97
2018-11-11T18:18:20.582Z,85.23
2018-11-11T18:20:50.185Z,91.30
2018-11-11T18:23:19.393Z,86.27
2018-11-11T18:25:48.517Z,95.43
2018-11-11T18:28:18.133Z,103.03
2018-11-11T18:30:47.236Z,133.23
2018-11-11T18:33:16.532Z,140.87
2018-11-11T18:35:45.940Z,113.20
2018-11-11T18:38:15.076Z,106.73
2018-11-11T18:40:44.238Z,111.40
2018-11-11T18:43:13.564Z,104.67
2018-11-11T18:45:42.675Z,108.30
2018-11-11T18:48:11.884Z,80.73
2018-11-11T18:50:41.324Z,78.77
2018-11-11T18:53:10.450Z,77.20
2018-11-11T18:55:39.492Z,83.60
2018-11-11T18:58:08.802Z,70.57
2018-11-11T19:00:38.190Z,58.40
2018-11-11T19:03:07.442Z,53.43
2018-11-11T19:05:37.114Z,53.13
2018-11-11T19:08:06.447Z,48.50
2018-11-11T19:10:35.586Z,41.87
2018-11-11T19:13:06.214Z,40.13
2018-11-11T19:15:35.253Z,36.13
2018-11-11T19:18:04.451Z,46.37
2018-11-11T19:20:33.951Z,48.63
2018-11-11T19:23:03.028Z,43.70
2018-11-11T19:25:32.493Z,47.83
2018-11-11T19:28:02.321Z,39.87
2018-11-11T19:30:32.281Z,47.03
2018-11-11T19:33:01.484Z,51.53
2018-11-11T19:35:30.804Z,46.23
2018-11-11T19:38:00.404Z,45.57
2018-11-11T19:40:30.135Z,40.60
2018-11-11T19:43:00.665Z,40.10
2018-11-11T19:45:30.529Z,45.93
2018-11-11T19:47:59.992Z,45.70
2018-11-11T19:50:30.127Z,46.77
2018-11-11T19:52:59.520Z,56.73
2018-11-11T19:55:29.251Z,66.13
2018-11-11T19:57:58.485Z,66.40
2018-11-11T20:00:29.480Z,66.37
2018-11-11T20:02:59.765Z,74.57
2018-11-11T20:05:29.064Z,72.03
2018-11-11T20:07:59.145Z,66.73
2018-11-11T20:10:29.216Z,85.23
2018-11-11T20:12:58.836Z,91.10
2018-11-11T20:15:29.616Z,83.20
2018-11-11T20:17:58.687Z,80.20
2018-11-11T20:20:31.538Z,72.70
2018-11-11T20:23:00.821Z,71.63
2018-11-11T20:25:30.134Z,71.87
2018-11-11T20:27:59.410Z,77.13
2018-11-11T20:30:30.056Z,62.97
2018-11-11T20:32:59.458Z,73.30
2018-11-11T20:35:29.881Z,75.73
2018-11-11T20:37:59.181Z,70.47
2018-11-11T20:40:28.857Z,65.60
2018-11-11T20:42:58.356Z,67.70
2018-11-11T20:45:29.490Z,67.50
2018-11-11T20:47:58.626Z,69.03
2018-11-11T20:50:29.435Z,69.30
2018-11-11T20:52:59.833Z,78.37
2018-11-11T20:55:29.308Z,66.93
2018-11-11T20:57:58.658Z,70.20
2018-11-11T21:00:29.321Z,75.10
2018-11-11T21:02:58.599Z,56.43
2018-11-11T21:05:28.464Z,52.33
2018-11-11T21:07:58.989Z,56.03
2018-11-11T21:10:29.122Z,63.00
2018-11-11T21:12:58.505Z,55.83
2018-11-11T21:15:28.720Z,55.83
2018-11-11T21:17:57.862Z,46.50
2018-11-11T21:20:29.918Z,45.70
2018-11-11T21:22:59.231Z,46.07
2018-11-11T21:25:28.614Z,49.33
2018-11-11T21:27:57.996Z,48.20
2018-11-11T21:30:28.544Z,51.60
2018-11-11T21:32:57.942Z,56.83
2018-11-11T21:35:28.042Z,58.57
2018-11-11T21:37:57.302Z,54.67
2018-11-11T21:40:27.348Z,60.03
2018-11-11T21:42:56.921Z,65.57
2018-11-11T21:45:27.137Z,56.83
2018-11-11T21:47:56.199Z,57.07
2018-11-11T21:50:26.439Z,59.50
2018-11-11T21:53:03.259Z,69.90
2018-11-11T21:55:32.408Z,59.87
2018-11-11T21:58:01.714Z,62.47
2018-11-11T22:00:30.940Z,63.87
2018-11-11T22:03:00.120Z,65.80
2018-11-11T22:05:29.200Z,62.20
2018-11-11T22:07:58.792Z,64.00
2018-11-11T22:10:28.065Z,64.10
2018-11-11T22:12:57.196Z,67.37
2018-11-11T22:15:26.668Z,72.27
2018-11-11T22:18:58.647Z,70.63
2018-11-11T22:21:28.151Z,71.20
2018-11-11T22:23:57.294Z,79.53
2018-11-11T22:26:26.400Z,77.00
2018-11-11T22:28:55.830Z,73.90
2018-11-11T22:31:24.948Z,73.27
2018-11-11T22:33:53.940Z,77.00
2018-11-11T22:37:26.134Z,85.17
2018-11-11T22:39:55.347Z,72.17
2018-11-11T22:42:24.641Z,71.27
2018-11-11T22:44:53.740Z,72.80
2018-11-11T22:47:23.025Z,72.73
2018-11-11T22:49:52.108Z,74.60
2018-11-11T22:52:21.570Z,75.47
2018-11-11T22:54:50.728Z,80.67
2018-11-11T22:57:20.027Z,80.33
2018-11-11T22:59:49.256Z,77.27
2018-11-11T23:02:18.467Z,74.60
2018-11-11T23:04:47.656Z,81.70
2018-11-11T23:07:16.936Z,73.57
2018-11-11T23:09:45.950Z,83.87
2018-11-11T23:12:15.041Z,77.53
2018-11-11T23:14:44.334Z,75.77
2018-11-11T23:17:13.501Z,84.20
2018-11-11T23:19:42.664Z,72.20
2018-11-11T23:22:11.877Z,69.83
2018-11-11T23:24:40.966Z,67.27
2018-11-11T23:27:10.220Z,69.43
2018-11-11T23:29:39.777Z,68.77
2018-11-11T23:32:09.048Z,80.53
2018-11-11T23:34:38.289Z,74.47
2018-11-11T23:37:07.726Z,69.30
2018-11-11T23:39:36.828Z,65.10
2018-11-11T23:42:06.401Z,66.13
2018-11-11T23:44:35.656Z,65.50
2018-11-11T23:47:04.930Z,69.63
2018-11-11T23:49:34.272Z,68.57
2018-11-11T23:52:03.579Z,63.37
2018-11-11T23:54:32.829Z,70.10
2018-11-11T23:57:02.218Z,61.97
2018-11-11T23:59:31.519Z,65.97
